Time;durP1;ratioP1;P1;durP2;ratioP2;P2;SDS_P1;SDS_P2;PMS_P1;PMS_P2;Temp;Humidity;BMP_temperature;BMP_pressure;BME280_temperature;BME280_humidity;BME280_pressure;Samples;Min_cycle;Max_cycle;Signal;HPM_P1;HPM_P2
2022/09/29 00:00:50;;;;;;;1.60;1.60;;;;;;;;;;1721211;83;26293;-43
2022/09/29 00:03:18;;;;;;;1.62;1.62;;;;;;;;;;1702763;83;27517;-51
2022/09/29 00:05:52;;;;;;;1.60;1.50;;;;;;;;;;1713914;82;26656;-45
2022/09/29 00:08:20;;;;;;;1.40;1.40;;;;;;;;;;1708088;82;26358;-45
2022/09/29 00:10:48;;;;;;;1.40;1.40;;;;;;;;;;1700503;83;26249;-48
2022/09/29 00:13:16;;;;;;;1.40;1.40;;;;;;;;;;1700156;83;26868;-46
2022/09/29 00:15:43;;;;;;;1.22;1.22;;;;;;;;;;1714036;83;26337;-47
2022/09/29 00:18:11;;;;;;;1.30;1.30;;;;;;;;;;1713877;83;26310;-46
2022/09/29 00:20:39;;;;;;;1.35;1.25;;;;;;;;;;1712587;83;26309;-43
2022/09/29 00:23:06;;;;;;;1.25;1.25;;;;;;;;;;1713924;83;26336;-58
2022/09/29 00:25:33;;;;;;;1.20;1.20;;;;;;;;;;1708879;83;26350;-49
2022/09/29 00:28:01;;;;;;;1.17;1.17;;;;;;;;;;1715201;83;26310;-46
2022/09/29 00:30:28;;;;;;;1.10;1.10;;;;;;;;;;1714206;83;26731;-46
2022/09/29 00:32:56;;;;;;;1.10;1.10;;;;;;;;;;1691017;83;26850;-53
2022/09/29 00:35:23;;;;;;;0.95;0.95;;;;;;;;;;1689692;83;26279;-49
2022/09/29 00:37:51;;;;;;;1.30;1.30;;;;;;;;;;1707559;82;26303;-52
2022/09/29 00:40:18;;;;;;;1.00;1.00;;;;;;;;;;1700307;83;26270;-49
2022/09/29 00:42:45;;;;;;;1.20;1.20;;;;;;;;;;1700174;83;26872;-48
2022/09/29 00:45:14;;;;;;;1.10;1.10;;;;;;;;;;1714190;82;26706;-48
2022/09/29 00:47:43;;;;;;;1.00;1.00;;;;;;;;;;1716098;83;26356;-43
2022/09/29 00:50:21;;;;;;;1.00;1.00;;;;;;;;;;1718449;83;26705;-45
2022/09/29 00:52:50;;;;;;;0.90;0.90;;;;;;;;;;1720184;82;26314;-43
2022/09/29 00:55:19;;;;;;;1.00;1.00;;;;;;;;;;1722525;81;26321;-50
2022/09/29 00:57:47;;;;;;;1.00;1.00;;;;;;;;;;1723026;83;26277;-54
2022/09/29 01:00:15;;;;;;;0.95;0.95;;;;;;;;;;1726415;82;26295;-45
2022/09/29 01:02:44;;;;;;;0.90;0.90;;;;;;;;;;1708772;83;26291;-48
2022/09/29 01:05:13;;;;;;;0.82;0.82;;;;;;;;;;1696303;83;26563;-47
2022/09/29 01:07:43;;;;;;;1.00;1.00;;;;;;;;;;1705570;82;26342;-44
2022/09/29 01:10:10;;;;;;;0.82;0.80;;;;;;;;;;1701932;83;26288;-49
2022/09/29 01:12:38;;;;;;;0.80;0.80;;;;;;;;;;1702799;83;26264;-44
2022/09/29 01:15:05;;;;;;;0.80;0.80;;;;;;;;;;1692746;83;26296;-43
2022/09/29 01:17:32;;;;;;;2.40;0.93;;;;;;;;;;1718586;82;26777;-53
2022/09/29 01:20:01;;;;;;;0.78;0.78;;;;;;;;;;1715034;82;26605;-50
2022/09/29 01:22:47;;;;;;;1.55;0.93;;;;;;;;;;1708723;83;26332;-46
2022/09/29 01:25:32;;;;;;;0.80;0.80;;;;;;;;;;1693545;83;26296;-50
2022/09/29 01:28:10;;;;;;;0.90;0.90;;;;;;;;;;1693810;83;26303;-47
2022/09/29 01:30:51;;;;;;;0.80;0.80;;;;;;;;;;1701843;82;26383;-61
2022/09/29 01:33:37;;;;;;;0.78;0.78;;;;;;;;;;1706590;83;26630;-58
2022/09/29 01:36:06;;;;;;;0.75;0.75;;;;;;;;;;1726588;82;26691;-45
2022/09/29 01:38:41;;;;;;;0.80;0.80;;;;;;;;;;1694264;83;27451;-52
2022/09/29 01:41:10;;;;;;;0.70;0.70;;;;;;;;;;1711338;83;26317;-50
2022/09/29 01:43:48;;;;;;;0.80;0.80;;;;;;;;;;1699686;82;26333;-65
2022/09/29 01:46:16;;;;;;;0.70;0.70;;;;;;;;;;1720173;83;26753;-60
2022/09/29 01:48:45;;;;;;;0.80;0.80;;;;;;;;;;1721375;82;26295;-45
2022/09/29 01:51:14;;;;;;;0.72;0.72;;;;;;;;;;1707159;83;26315;-48
2022/09/29 01:53:43;;;;;;;0.70;0.70;;;;;;;;;;1714299;83;26293;-44
2022/09/29 01:56:13;;;;;;;0.75;0.75;;;;;;;;;;1698646;83;26394;-50
2022/09/29 01:58:42;;;;;;;0.80;0.80;;;;;;;;;;1711385;83;26383;-50
2022/09/29 02:01:11;;;;;;;0.65;0.65;;;;;;;;;;1716013;83;26331;-43
2022/09/29 02:03:40;;;;;;;1.05;0.70;;;;;;;;;;1726637;82;26601;-49
2022/09/29 02:06:14;;;;;;;1.52;0.80;;;;;;;;;;1711339;82;26289;-50
2022/09/29 02:08:43;;;;;;;0.80;0.80;;;;;;;;;;1714385;83;26368;-45
2022/09/29 02:11:12;;;;;;;0.70;0.70;;;;;;;;;;1713388;82;26333;-49
2022/09/29 02:13:40;;;;;;;0.75;0.75;;;;;;;;;;1714560;82;26294;-45
2022/09/29 02:16:13;;;;;;;1.00;0.68;;;;;;;;;;1717677;82;26299;-47
2022/09/29 02:18:57;;;;;;;0.93;0.65;;;;;;;;;;1708737;82;26810;-46
2022/09/29 02:21:24;;;;;;;0.70;0.70;;;;;;;;;;1725881;82;26285;-43
2022/09/29 02:23:51;;;;;;;0.50;0.50;;;;;;;;;;1719236;82;26341;-46
2022/09/29 02:26:19;;;;;;;0.60;0.60;;;;;;;;;;1717373;82;26291;-46
2022/09/29 02:28:46;;;;;;;1.92;0.70;;;;;;;;;;1734152;82;26577;-45
2022/09/29 02:31:14;;;;;;;0.65;0.65;;;;;;;;;;1710910;83;26358;-56
2022/09/29 02:33:41;;;;;;;1.00;0.72;;;;;;;;;;1707465;82;26349;-47
2022/09/29 02:36:10;;;;;;;0.70;0.70;;;;;;;;;;1711168;82;26375;-50
2022/09/29 02:38:39;;;;;;;0.60;0.60;;;;;;;;;;1718550;82;26311;-51
2022/09/29 02:41:22;;;;;;;0.75;0.70;;;;;;;;;;1711181;83;26749;-47
2022/09/29 02:43:54;;;;;;;0.85;0.70;;;;;;;;;;1721687;81;26297;-46
2022/09/29 02:46:32;;;;;;;0.70;0.70;;;;;;;;;;1752697;81;26329;-50
2022/09/29 02:49:00;;;;;;;0.60;0.60;;;;;;;;;;1747632;81;26300;-47
2022/09/29 02:51:29;;;;;;;2.05;0.60;;;;;;;;;;1733304;82;26276;-45
2022/09/29 02:54:10;;;;;;;1.57;0.60;;;;;;;;;;1730368;81;26883;-44
2022/09/29 02:56:42;;;;;;;0.65;0.65;;;;;;;;;;1716653;81;26346;-50
2022/09/29 02:59:16;;;;;;;2.55;0.70;;;;;;;;;;1719776;82;26344;-50
2022/09/29 03:01:54;;;;;;;0.72;0.72;;;;;;;;;;1726058;81;26301;-51
2022/09/29 03:04:23;;;;;;;2.62;0.65;;;;;;;;;;1705264;82;26322;-56
2022/09/29 03:06:51;;;;;;;1.60;0.80;;;;;;;;;;1720043;82;26312;-52
2022/09/29 03:09:18;;;;;;;0.70;0.70;;;;;;;;;;1705977;83;26667;-54
2022/09/29 03:11:46;;;;;;;1.22;0.70;;;;;;;;;;1705772;82;26401;-45
2022/09/29 03:14:13;;;;;;;0.90;0.75;;;;;;;;;;1705422;83;27234;-49
2022/09/29 03:16:41;;;;;;;0.78;0.70;;;;;;;;;;1710978;83;26380;-51
2022/09/29 03:19:08;;;;;;;0.60;0.60;;;;;;;;;;1727891;81;26369;-51
2022/09/29 03:21:35;;;;;;;0.80;0.80;;;;;;;;;;1738799;82;26276;-49
2022/09/29 03:24:03;;;;;;;0.68;0.68;;;;;;;;;;1739754;82;26300;-53
2022/09/29 03:26:30;;;;;;;0.90;0.70;;;;;;;;;;1744043;82;26753;-45
2022/09/29 03:28:57;;;;;;;0.60;0.60;;;;;;;;;;1719738;82;26314;-60
2022/09/29 03:31:25;;;;;;;0.70;0.70;;;;;;;;;;1727881;82;26223;-48
2022/09/29 03:33:52;;;;;;;0.70;0.70;;;;;;;;;;1722407;82;26753;-49
2022/09/29 03:36:19;;;;;;;1.30;0.68;;;;;;;;;;1739482;82;26756;-58
2022/09/29 03:38:46;;;;;;;1.87;0.70;;;;;;;;;;1734984;82;26310;-59
2022/09/29 03:41:14;;;;;;;0.78;0.78;;;;;;;;;;1748556;80;26286;-50
2022/09/29 03:43:42;;;;;;;1.30;0.68;;;;;;;;;;1734403;81;26389;-50
2022/09/29 03:46:09;;;;;;;1.15;0.90;;;;;;;;;;1743477;82;26743;-47
2022/09/29 03:48:38;;;;;;;1.35;0.60;;;;;;;;;;1743883;82;27553;-44
2022/09/29 03:51:05;;;;;;;0.70;0.70;;;;;;;;;;1744067;82;26396;-45
2022/09/29 03:53:35;;;;;;;1.62;0.65;;;;;;;;;;1732821;81;26791;-46
2022/09/29 03:56:04;;;;;;;0.80;0.80;;;;;;;;;;1726752;81;26297;-51
2022/09/29 03:58:31;;;;;;;1.55;0.70;;;;;;;;;;1713069;82;26300;-44
2022/09/29 04:00:58;;;;;;;1.75;0.70;;;;;;;;;;1706098;83;26289;-53
2022/09/29 04:03:25;;;;;;;0.75;0.75;;;;;;;;;;1723620;81;26273;-50
2022/09/29 04:05:53;;;;;;;0.60;0.60;;;;;;;;;;1727971;82;26317;-49
2022/09/29 04:08:20;;;;;;;0.70;0.70;;;;;;;;;;1728398;83;26355;-47
2022/09/29 04:10:47;;;;;;;1.00;0.90;;;;;;;;;;1711643;82;26390;-49
2022/09/29 04:13:15;;;;;;;0.80;0.80;;;;;;;;;;1715063;82;26306;-49
2022/09/29 04:15:42;;;;;;;0.70;0.60;;;;;;;;;;1725693;83;26297;-48
2022/09/29 04:18:09;;;;;;;0.70;0.70;;;;;;;;;;1714927;83;26767;-47
2022/09/29 04:20:37;;;;;;;0.70;0.70;;;;;;;;;;1707504;82;26363;-57
2022/09/29 04:23:05;;;;;;;0.60;0.60;;;;;;;;;;1728624;81;26315;-45
2022/09/29 04:25:33;;;;;;;0.70;0.68;;;;;;;;;;1703161;83;26268;-48
2022/09/29 04:28:00;;;;;;;1.65;0.60;;;;;;;;;;1702720;83;26381;-55
2022/09/29 04:30:27;;;;;;;1.35;0.70;;;;;;;;;;1705729;83;26352;-51
2022/09/29 04:32:55;;;;;;;1.00;0.78;;;;;;;;;;1726246;82;26340;-48
2022/09/29 04:35:22;;;;;;;1.20;0.70;;;;;;;;;;1723484;81;26813;-46
2022/09/29 04:37:49;;;;;;;0.78;0.78;;;;;;;;;;1730699;81;26289;-51
2022/09/29 04:40:16;;;;;;;1.90;0.70;;;;;;;;;;1727917;83;26218;-49
2022/09/29 04:42:44;;;;;;;0.60;0.60;;;;;;;;;;1725635;81;26301;-49
2022/09/29 04:45:11;;;;;;;1.30;0.70;;;;;;;;;;1727870;83;26351;-47
2022/09/29 04:47:38;;;;;;;0.80;0.80;;;;;;;;;;1727787;83;26273;-57
2022/09/29 04:50:06;;;;;;;1.52;1.12;;;;;;;;;;1730772;82;26295;-51
2022/09/29 04:52:33;;;;;;;0.70;0.70;;;;;;;;;;1731292;81;26367;-49
2022/09/29 04:55:01;;;;;;;2.58;1.15;;;;;;;;;;1723645;82;26290;-46
2022/09/29 04:57:28;;;;;;;3.33;0.70;;;;;;;;;;1719168;83;26342;-45
2022/09/29 04:59:56;;;;;;;0.70;0.70;;;;;;;;;;1710208;83;26828;-46
2022/09/29 05:02:23;;;;;;;3.85;1.00;;;;;;;;;;1715148;82;26748;-48
2022/09/29 05:04:50;;;;;;;2.83;0.78;;;;;;;;;;1728273;82;26284;-49
2022/09/29 05:07:18;;;;;;;3.62;0.80;;;;;;;;;;1720225;81;26281;-53
2022/09/29 05:09:45;;;;;;;2.67;0.80;;;;;;;;;;1722924;82;26780;-60
2022/09/29 05:12:12;;;;;;;3.52;0.80;;;;;;;;;;1710521;82;26771;-54
2022/09/29 05:14:39;;;;;;;1.02;0.80;;;;;;;;;;1717554;82;27549;-48
2022/09/29 05:17:07;;;;;;;3.70;0.80;;;;;;;;;;1724783;82;26738;-45
2022/09/29 05:19:34;;;;;;;4.28;1.00;;;;;;;;;;1727630;83;26802;-58
2022/09/29 05:22:02;;;;;;;3.40;0.88;;;;;;;;;;1736212;82;26298;-49
2022/09/29 05:24:29;;;;;;;1.65;0.98;;;;;;;;;;1733695;82;26931;-51
2022/09/29 05:26:56;;;;;;;1.92;0.90;;;;;;;;;;1727018;82;26281;-57
2022/09/29 05:29:24;;;;;;;1.47;0.90;;;;;;;;;;1725145;82;26296;-60
2022/09/29 05:31:51;;;;;;;2.65;0.90;;;;;;;;;;1730767;81;26291;-47
2022/09/29 05:34:18;;;;;;;1.70;0.90;;;;;;;;;;1741968;82;26325;-49
2022/09/29 05:36:45;;;;;;;2.90;0.95;;;;;;;;;;1724204;82;26283;-48
2022/09/29 05:39:13;;;;;;;3.10;1.00;;;;;;;;;;1705177;82;26764;-53
2022/09/29 05:41:40;;;;;;;2.45;0.90;;;;;;;;;;1708715;83;26303;-49
2022/09/29 05:44:07;;;;;;;5.37;0.90;;;;;;;;;;1723407;82;26370;-45
2022/09/29 05:46:34;;;;;;;2.12;0.90;;;;;;;;;;1706370;83;26295;-47
2022/09/29 05:49:02;;;;;;;5.40;0.90;;;;;;;;;;1712465;82;26714;-48
2022/09/29 05:51:29;;;;;;;6.85;1.70;;;;;;;;;;1715889;81;26348;-45
2022/09/29 05:53:56;;;;;;;2.42;0.90;;;;;;;;;;1753668;81;26359;-46
2022/09/29 05:56:24;;;;;;;6.33;1.32;;;;;;;;;;1734407;82;26270;-56
2022/09/29 05:58:52;;;;;;;4.45;0.90;;;;;;;;;;1708613;82;26408;-46
2022/09/29 06:01:21;;;;;;;2.72;0.82;;;;;;;;;;1716379;82;26301;-50
2022/09/29 06:03:50;;;;;;;1.22;0.80;;;;;;;;;;1714239;83;26769;-50
2022/09/29 06:06:22;;;;;;;2.27;0.90;;;;;;;;;;1714883;82;26317;-47
2022/09/29 06:08:49;;;;;;;2.95;1.10;;;;;;;;;;1714155;82;26288;-51
2022/09/29 06:11:18;;;;;;;2.75;1.02;;;;;;;;;;1714737;83;26674;-47
2022/09/29 06:13:46;;;;;;;2.62;0.98;;;;;;;;;;1713588;83;26396;-44
2022/09/29 06:16:14;;;;;;;2.15;0.80;;;;;;;;;;1714539;82;26266;-58
2022/09/29 06:18:42;;;;;;;4.25;1.10;;;;;;;;;;1714475;83;26314;-47
2022/09/29 06:21:11;;;;;;;5.25;1.50;;;;;;;;;;1713277;83;26302;-48
2022/09/29 06:23:38;;;;;;;4.33;1.47;;;;;;;;;;1710441;82;27620;-49
2022/09/29 06:26:07;;;;;;;2.75;1.25;;;;;;;;;;1716810;82;26270;-53
2022/09/29 06:28:35;;;;;;;3.05;1.30;;;;;;;;;;1712383;83;27357;-51
2022/09/29 06:31:04;;;;;;;1.90;1.40;;;;;;;;;;1716551;83;26282;-47
2022/09/29 06:33:32;;;;;;;3.60;1.20;;;;;;;;;;1711439;83;26310;-52
2022/09/29 06:38:47;;;;;;;3.50;1.10;;;;;;;;;;1715032;83;26427;-48
2022/09/29 06:41:14;;;;;;;1.40;1.30;;;;;;;;;;1715119;83;26273;-52
2022/09/29 06:43:41;;;;;;;1.30;1.20;;;;;;;;;;1714826;82;26382;-50
2022/09/29 06:46:08;;;;;;;2.17;1.30;;;;;;;;;;1716250;82;26277;-47
2022/09/29 06:48:36;;;;;;;1.10;1.10;;;;;;;;;;1715321;83;26895;-46
2022/09/29 06:51:05;;;;;;;1.10;1.10;;;;;;;;;;1714301;83;26290;-47
2022/09/29 06:53:32;;;;;;;0.80;0.80;;;;;;;;;;1715503;82;26316;-58
2022/09/29 06:56:00;;;;;;;1.95;1.10;;;;;;;;;;1704548;83;26270;-57
2022/09/29 06:58:28;;;;;;;1.07;0.90;;;;;;;;;;1714601;82;26387;-50
2022/09/29 07:00:57;;;;;;;1.07;1.07;;;;;;;;;;1722026;83;26391;-47
2022/09/29 07:03:24;;;;;;;1.10;1.00;;;;;;;;;;1727853;82;26284;-53
2022/09/29 07:05:51;;;;;;;0.82;0.82;;;;;;;;;;1705537;82;26708;-46
2022/09/29 07:08:19;;;;;;;0.80;0.80;;;;;;;;;;1737599;82;26819;-55
2022/09/29 07:10:47;;;;;;;2.20;0.98;;;;;;;;;;1716428;82;26805;-49
2022/09/29 07:13:14;;;;;;;2.12;0.80;;;;;;;;;;1704229;82;26336;-47
2022/09/29 07:15:41;;;;;;;1.90;0.80;;;;;;;;;;1721504;80;26304;-46
2022/09/29 07:18:08;;;;;;;0.72;0.72;;;;;;;;;;1718075;82;26777;-52
2022/09/29 07:20:36;;;;;;;0.70;0.70;;;;;;;;;;1727544;83;26384;-49
2022/09/29 07:23:04;;;;;;;0.70;0.70;;;;;;;;;;1715637;83;26301;-47
2022/09/29 07:25:33;;;;;;;0.60;0.60;;;;;;;;;;1720480;82;26337;-49
2022/09/29 07:28:01;;;;;;;0.80;0.80;;;;;;;;;;1719656;82;26364;-57
2022/09/29 07:30:28;;;;;;;0.80;0.80;;;;;;;;;;1724994;81;26288;-51
2022/09/29 07:32:56;;;;;;;1.52;0.80;;;;;;;;;;1732670;82;26314;-47
2022/09/29 07:35:24;;;;;;;0.80;0.80;;;;;;;;;;1715132;82;26801;-45
2022/09/29 07:37:54;;;;;;;0.72;0.72;;;;;;;;;;1723108;82;26234;-45
2022/09/29 07:40:22;;;;;;;0.65;0.53;;;;;;;;;;1725562;83;26281;-49
2022/09/29 07:42:50;;;;;;;0.80;0.80;;;;;;;;;;1728198;82;26866;-48
2022/09/29 07:45:17;;;;;;;1.75;0.70;;;;;;;;;;1719900;82;26300;-45
2022/09/29 07:47:44;;;;;;;0.75;0.68;;;;;;;;;;1721221;82;26289;-48
2022/09/29 07:50:12;;;;;;;0.70;0.70;;;;;;;;;;1709633;83;26431;-46
2022/09/29 07:52:39;;;;;;;0.82;0.70;;;;;;;;;;1739036;81;26892;-51
2022/09/29 07:55:07;;;;;;;1.85;0.72;;;;;;;;;;1745968;81;26749;-45
2022/09/29 07:57:34;;;;;;;0.60;0.60;;;;;;;;;;1742567;82;26320;-46
2022/09/29 08:00:02;;;;;;;0.60;0.60;;;;;;;;;;1721641;82;26392;-45
2022/09/29 08:02:30;;;;;;;0.60;0.60;;;;;;;;;;1714402;82;26321;-46
2022/09/29 08:04:57;;;;;;;1.12;0.70;;;;;;;;;;1714845;83;26309;-46
2022/09/29 08:07:24;;;;;;;0.60;0.60;;;;;;;;;;1715064;82;26222;-49
2022/09/29 08:09:51;;;;;;;0.60;0.60;;;;;;;;;;1710490;83;26289;-49
2022/09/29 08:12:19;;;;;;;0.50;0.50;;;;;;;;;;1709080;82;26270;-52
2022/09/29 08:14:47;;;;;;;0.60;0.60;;;;;;;;;;1720411;82;26309;-47
2022/09/29 08:17:15;;;;;;;0.72;0.60;;;;;;;;;;1712190;83;26289;-48
2022/09/29 08:19:42;;;;;;;0.53;0.53;;;;;;;;;;1714086;82;26339;-47
2022/09/29 08:22:09;;;;;;;0.60;0.60;;;;;;;;;;1713645;81;26295;-46
2022/09/29 08:24:39;;;;;;;0.68;0.60;;;;;;;;;;1711926;83;26289;-48
2022/09/29 08:27:06;;;;;;;0.72;0.60;;;;;;;;;;1710835;82;26642;-45
2022/09/29 08:29:33;;;;;;;1.40;0.50;;;;;;;;;;1711838;83;26745;-45
2022/09/29 08:32:00;;;;;;;0.50;0.50;;;;;;;;;;1712527;83;26281;-48
2022/09/29 08:34:28;;;;;;;0.50;0.50;;;;;;;;;;1712933;83;26309;-47
2022/09/29 08:36:55;;;;;;;0.60;0.60;;;;;;;;;;1713186;82;26285;-51
2022/09/29 08:39:22;;;;;;;0.50;0.50;;;;;;;;;;1710989;83;26649;-51
2022/09/29 08:41:54;;;;;;;0.50;0.50;;;;;;;;;;1713840;83;26301;-50
2022/09/29 08:44:29;;;;;;;0.40;0.40;;;;;;;;;;1712511;83;26803;-49
2022/09/29 08:47:07;;;;;;;2.10;0.60;;;;;;;;;;1703104;83;26743;-46
2022/09/29 08:49:39;;;;;;;0.42;0.42;;;;;;;;;;1704296;83;26317;-50
2022/09/29 08:52:08;;;;;;;0.47;0.47;;;;;;;;;;1721351;82;26290;-50
2022/09/29 08:54:37;;;;;;;0.40;0.40;;;;;;;;;;1731508;82;26316;-44
2022/09/29 08:57:04;;;;;;;0.60;0.60;;;;;;;;;;1722973;82;26351;-50
2022/09/29 08:59:32;;;;;;;0.50;0.50;;;;;;;;;;1719704;83;26380;-49
2022/09/29 09:02:19;;;;;;;0.60;0.60;;;;;;;;;;1723138;82;26428;-49
2022/09/29 09:04:48;;;;;;;0.50;0.50;;;;;;;;;;1718490;83;26281;-49
2022/09/29 09:07:17;;;;;;;0.50;0.50;;;;;;;;;;1727427;82;26645;-47
2022/09/29 09:09:52;;;;;;;0.60;0.40;;;;;;;;;;1724976;83;26379;-53
2022/09/29 09:12:23;;;;;;;0.40;0.40;;;;;;;;;;1719990;82;26753;-50
2022/09/29 09:14:53;;;;;;;0.60;0.60;;;;;;;;;;1724658;83;26258;-47
2022/09/29 09:17:22;;;;;;;1.22;0.50;;;;;;;;;;1723917;83;26241;-52
2022/09/29 09:20:00;;;;;;;0.50;0.50;;;;;;;;;;1725820;83;26316;-45
2022/09/29 09:22:32;;;;;;;1.20;0.68;;;;;;;;;;1724248;81;26409;-45
2022/09/29 09:25:01;;;;;;;1.55;0.57;;;;;;;;;;1726591;82;26281;-48
2022/09/29 09:27:32;;;;;;;1.50;0.60;;;;;;;;;;1720754;83;26293;-46
2022/09/29 09:30:01;;;;;;;0.95;0.80;;;;;;;;;;1723945;83;26293;-47
2022/09/29 09:32:31;;;;;;;0.68;0.60;;;;;;;;;;1729891;82;26855;-50
2022/09/29 09:35:00;;;;;;;0.50;0.50;;;;;;;;;;1729499;82;26796;-44
2022/09/29 09:37:32;;;;;;;1.65;0.70;;;;;;;;;;1724600;82;26395;-42
2022/09/29 09:40:01;;;;;;;0.70;0.70;;;;;;;;;;1715790;82;26295;-42
2022/09/29 09:42:30;;;;;;;0.50;0.50;;;;;;;;;;1725498;82;26356;-43
2022/09/29 09:44:59;;;;;;;0.50;0.50;;;;;;;;;;1725748;83;26301;-44
2022/09/29 09:47:27;;;;;;;1.22;0.60;;;;;;;;;;1712185;83;26338;-42
2022/09/29 09:49:59;;;;;;;0.50;0.50;;;;;;;;;;1710528;83;26301;-41
2022/09/29 09:52:40;;;;;;;0.70;0.70;;;;;;;;;;1718840;81;26352;-48
2022/09/29 09:55:09;;;;;;;0.55;0.55;;;;;;;;;;1728520;82;26300;-44
2022/09/29 09:57:54;;;;;;;0.60;0.60;;;;;;;;;;1726327;82;26730;-47
2022/09/29 10:00:23;;;;;;;0.60;0.60;;;;;;;;;;1729859;82;26338;-45
2022/09/29 10:02:55;;;;;;;0.68;0.68;;;;;;;;;;1721437;82;26286;-47
2022/09/29 10:05:25;;;;;;;0.60;0.60;;;;;;;;;;1726038;83;26780;-46
2022/09/29 10:07:53;;;;;;;0.53;0.53;;;;;;;;;;1728282;82;26376;-46
2022/09/29 10:10:24;;;;;;;0.50;0.50;;;;;;;;;;1724358;83;26322;-50
2022/09/29 10:12:59;;;;;;;0.60;0.60;;;;;;;;;;1726873;83;25863;-44
2022/09/29 10:15:31;;;;;;;0.60;0.60;;;;;;;;;;1721144;83;26293;-45
2022/09/29 10:18:00;;;;;;;0.68;0.68;;;;;;;;;;1727592;81;26359;-43
2022/09/29 10:20:34;;;;;;;0.53;0.53;;;;;;;;;;1727308;82;26281;-46
2022/09/29 10:23:20;;;;;;;0.75;0.50;;;;;;;;;;1725208;83;26352;-51
2022/09/29 10:26:05;;;;;;;0.60;0.60;;;;;;;;;;1727674;83;26364;-43
2022/09/29 10:28:40;;;;;;;0.50;0.50;;;;;;;;;;1727608;83;26277;-42
2022/09/29 10:31:18;;;;;;;0.60;0.60;;;;;;;;;;1718167;82;26849;-43
2022/09/29 10:33:47;;;;;;;0.60;0.60;;;;;;;;;;1726800;83;26946;-50
2022/09/29 10:36:16;;;;;;;1.37;0.60;;;;;;;;;;1726428;82;26430;-48
2022/09/29 10:38:46;;;;;;;1.00;0.60;;;;;;;;;;1725922;82;26301;-41
2022/09/29 10:41:13;;;;;;;0.50;0.50;;;;;;;;;;1727089;81;26761;-48
2022/09/29 10:43:41;;;;;;;0.57;0.57;;;;;;;;;;1727308;81;27442;-47
2022/09/29 10:46:10;;;;;;;0.95;0.80;;;;;;;;;;1727051;82;26293;-42
2022/09/29 10:48:37;;;;;;;0.57;0.57;;;;;;;;;;1718678;81;26355;-41
2022/09/29 10:51:05;;;;;;;0.60;0.60;;;;;;;;;;1725232;81;26744;-40
2022/09/29 10:53:34;;;;;;;0.60;0.60;;;;;;;;;;1729689;81;26293;-40
2022/09/29 10:56:04;;;;;;;0.40;0.40;;;;;;;;;;1723282;82;26758;-45
2022/09/29 10:58:33;;;;;;;2.35;0.80;;;;;;;;;;1727065;83;26296;-46
2022/09/29 11:01:11;;;;;;;6.08;2.55;;;;;;;;;;1719633;83;26934;-49
2022/09/29 11:03:42;;;;;;;48.42;37.50;;;;;;;;;;1713571;83;26281;-47
2022/09/29 11:06:13;;;;;;;100.27;80.03;;;;;;;;;;1713507;82;27354;-44
2022/09/29 11:09:00;;;;;;;202.20;157.00;;;;;;;;;;1711538;83;26341;-45
2022/09/29 11:11:29;;;;;;;288.00;227.53;;;;;;;;;;1710533;83;27100;-45
2022/09/29 11:13:58;;;;;;;368.80;287.55;;;;;;;;;;1705009;82;26893;-44
2022/09/29 11:16:29;;;;;;;418.30;317.32;;;;;;;;;;1727680;82;26844;-47
2022/09/29 11:19:07;;;;;;;506.40;371.80;;;;;;;;;;1715279;82;26729;-43
2022/09/29 11:21:41;;;;;;;586.15;436.90;;;;;;;;;;1702796;83;26352;-47
2022/09/29 11:24:19;;;;;;;651.82;492.57;;;;;;;;;;1711720;83;26386;-48
2022/09/29 11:26:48;;;;;;;651.25;486.68;;;;;;;;;;1699825;83;26647;-45
2022/09/29 11:29:22;;;;;;;579.58;422.07;;;;;;;;;;1714341;83;26332;-47
2022/09/29 11:31:51;;;;;;;535.20;385.40;;;;;;;;;;1712618;83;27599;-48
2022/09/29 11:34:26;;;;;;;449.38;323.07;;;;;;;;;;1712798;83;26749;-44
2022/09/29 11:37:13;;;;;;;388.50;281.20;;;;;;;;;;1697496;82;26762;-45
2022/09/29 11:39:50;;;;;;;329.02;238.95;;;;;;;;;;1708041;82;27369;-47
2022/09/29 11:42:28;;;;;;;276.62;201.10;;;;;;;;;;1714135;83;26302;-44
2022/09/29 11:44:57;;;;;;;254.93;177.80;;;;;;;;;;1698050;83;26352;-52
2022/09/29 11:47:29;;;;;;;210.50;146.07;;;;;;;;;;1713768;82;26352;-46
2022/09/29 11:49:57;;;;;;;174.07;124.15;;;;;;;;;;1713799;82;26336;-43
2022/09/29 11:52:27;;;;;;;152.60;108.00;;;;;;;;;;1717491;82;26290;-42
2022/09/29 11:54:59;;;;;;;130.10;90.53;;;;;;;;;;1715176;82;26789;-48
2022/09/29 11:57:37;;;;;;;105.55;75.15;;;;;;;;;;1708018;82;26319;-46
2022/09/29 12:00:09;;;;;;;90.85;62.78;;;;;;;;;;1696770;83;26953;-47
2022/09/29 12:02:56;;;;;;;78.57;53.87;;;;;;;;;;1690056;83;26830;-47
2022/09/29 12:05:41;;;;;;;65.22;45.80;;;;;;;;;;1691583;83;26715;-54
2022/09/29 12:08:10;;;;;;;48.52;36.73;;;;;;;;;;1695009;82;26889;-43
2022/09/29 12:10:45;;;;;;;40.95;30.25;;;;;;;;;;1691994;83;26727;-47
2022/09/29 12:13:17;;;;;;;37.83;27.50;;;;;;;;;;1690128;83;27413;-43
2022/09/29 12:15:44;;;;;;;30.23;22.22;;;;;;;;;;1711092;83;26363;-45
2022/09/29 12:18:16;;;;;;;28.42;20.23;;;;;;;;;;1701992;82;26376;-46
2022/09/29 12:20:44;;;;;;;20.30;16.23;;;;;;;;;;1692190;82;27311;-51
2022/09/29 12:23:13;;;;;;;19.12;15.38;;;;;;;;;;1712922;82;26362;-44
2022/09/29 12:25:42;;;;;;;16.55;13.22;;;;;;;;;;1707584;83;26342;-47
2022/09/29 12:28:14;;;;;;;13.80;11.55;;;;;;;;;;1715692;82;26278;-42
2022/09/29 12:30:43;;;;;;;11.40;9.95;;;;;;;;;;1708172;82;26306;-45
2022/09/29 12:33:27;;;;;;;9.70;8.45;;;;;;;;;;1714384;83;26358;-41
2022/09/29 12:35:55;;;;;;;8.10;7.20;;;;;;;;;;1702821;82;26784;-46
2022/09/29 12:38:27;;;;;;;8.20;6.90;;;;;;;;;;1704775;83;26230;-44
2022/09/29 12:40:56;;;;;;;6.60;6.00;;;;;;;;;;1705573;82;26295;-47
2022/09/29 12:43:25;;;;;;;5.35;4.85;;;;;;;;;;1705855;83;26306;-45
2022/09/29 12:46:10;;;;;;;5.25;4.78;;;;;;;;;;1706543;83;26305;-45
2022/09/29 12:48:48;;;;;;;4.53;4.20;;;;;;;;;;1711142;83;27250;-46
2022/09/29 12:51:29;;;;;;;3.75;3.50;;;;;;;;;;1715969;82;26279;-47
2022/09/29 12:54:15;;;;;;;3.52;3.33;;;;;;;;;;1709757;82;26516;-45
2022/09/29 12:56:50;;;;;;;3.00;2.80;;;;;;;;;;1711749;83;26282;-46
2022/09/29 12:59:18;;;;;;;2.90;2.72;;;;;;;;;;1713079;83;26281;-56
2022/09/29 13:01:46;;;;;;;2.50;2.40;;;;;;;;;;1717825;82;26451;-50
2022/09/29 13:04:15;;;;;;;2.30;2.20;;;;;;;;;;1725808;82;26281;-50
2022/09/29 13:07:01;;;;;;;2.20;2.10;;;;;;;;;;1726113;82;26281;-49
2022/09/29 13:09:42;;;;;;;2.25;2.15;;;;;;;;;;1728170;82;26816;-46
2022/09/29 13:12:16;;;;;;;1.90;1.80;;;;;;;;;;1726429;82;26660;-47
2022/09/29 13:14:45;;;;;;;1.50;1.50;;;;;;;;;;1725256;82;26317;-47
2022/09/29 13:17:23;;;;;;;1.70;1.65;;;;;;;;;;1724803;82;26266;-49
2022/09/29 13:19:58;;;;;;;1.70;1.60;;;;;;;;;;1721480;82;26774;-50
2022/09/29 13:22:43;;;;;;;1.32;1.32;;;;;;;;;;1714712;82;26374;-47
2022/09/29 13:25:15;;;;;;;1.30;1.30;;;;;;;;;;1724380;82;26348;-45
2022/09/29 13:27:44;;;;;;;1.37;1.30;;;;;;;;;;1721808;82;26313;-49
2022/09/29 13:30:13;;;;;;;1.10;1.10;;;;;;;;;;1714966;82;26699;-48
2022/09/29 13:32:42;;;;;;;1.77;1.20;;;;;;;;;;1724706;82;26321;-47
2022/09/29 13:35:18;;;;;;;1.10;1.10;;;;;;;;;;1724797;81;26297;-57
2022/09/29 13:37:44;;;;;;;1.37;1.27;;;;;;;;;;1741264;82;27429;-49
2022/09/29 13:40:20;;;;;;;0.95;0.95;;;;;;;;;;1744621;82;26297;-48
2022/09/29 13:42:50;;;;;;;1.02;1.02;;;;;;;;;;1727118;83;26780;-46
2022/09/29 13:45:18;;;;;;;1.20;1.20;;;;;;;;;;1725763;82;26308;-43
2022/09/29 13:47:50;;;;;;;1.10;1.10;;;;;;;;;;1736470;82;26298;-43
2022/09/29 13:50:35;;;;;;;0.85;0.82;;;;;;;;;;1727927;80;26356;-47
2022/09/29 13:53:21;;;;;;;2.67;0.60;;;;;;;;;;1722697;81;27802;-42
2022/09/29 13:56:04;;;;;;;0.80;0.65;;;;;;;;;;1709056;82;26768;-45
2022/09/29 13:58:33;;;;;;;0.80;0.80;;;;;;;;;;1728737;82;26418;-49
2022/09/29 14:01:03;;;;;;;1.10;0.70;;;;;;;;;;1725874;82;26299;-46
2022/09/29 14:03:35;;;;;;;1.52;0.80;;;;;;;;;;1719967;83;26327;-44
2022/09/29 14:06:05;;;;;;;0.70;0.70;;;;;;;;;;1719428;82;26348;-46
2022/09/29 14:08:36;;;;;;;1.47;0.72;;;;;;;;;;1719579;82;26331;-42
2022/09/29 14:11:14;;;;;;;0.78;0.78;;;;;;;;;;1729207;81;26281;-44
2022/09/29 14:13:43;;;;;;;0.68;0.65;;;;;;;;;;1720785;82;26280;-49
2022/09/29 14:16:29;;;;;;;0.72;0.72;;;;;;;;;;1722918;81;26305;-47
2022/09/29 14:19:14;;;;;;;0.80;0.80;;;;;;;;;;1722963;83;27487;-43
2022/09/29 14:21:52;;;;;;;0.80;0.80;;;;;;;;;;1719899;83;26307;-47
2022/09/29 14:24:36;;;;;;;1.22;0.70;;;;;;;;;;1727254;82;26379;-48
2022/09/29 14:27:25;;;;;;;0.65;0.60;;;;;;;;;;1724528;83;26293;-50
2022/09/29 14:30:12;;;;;;;0.68;0.68;;;;;;;;;;1726547;83;27263;-52
2022/09/29 14:32:41;;;;;;;0.82;0.65;;;;;;;;;;1725662;81;26773;-48
2022/09/29 14:35:19;;;;;;;2.67;0.70;;;;;;;;;;1727425;81;26795;-48
2022/09/29 14:37:48;;;;;;;0.70;0.70;;;;;;;;;;1720300;82;26312;-58
2022/09/29 14:40:29;;;;;;;0.78;0.78;;;;;;;;;;1728790;82;26318;-53
2022/09/29 14:43:04;;;;;;;0.70;0.70;;;;;;;;;;1727258;83;26365;-51
2022/09/29 14:54:05;;;;;;;1.02;0.85;;;;;;;;;;1725280;82;26304;-48
2022/09/29 14:56:40;;;;;;;0.70;0.70;;;;;;;;;;1694349;83;26337;-51
2022/09/29 14:59:15;;;;;;;0.90;0.80;;;;;;;;;;1719921;82;26265;-46
2022/09/29 15:01:44;;;;;;;1.02;0.98;;;;;;;;;;1725936;83;26285;-47
2022/09/29 15:04:13;;;;;;;0.85;0.85;;;;;;;;;;1714937;83;26286;-51
2022/09/29 15:06:45;;;;;;;0.65;0.65;;;;;;;;;;1714393;82;26952;-47
2022/09/29 15:09:16;;;;;;;0.70;0.70;;;;;;;;;;1708891;82;27324;-46